createdAt,value
2019-01-24T00:01:44.546Z,151.80
2019-01-24T00:04:16.892Z,144.60
2019-01-24T00:06:49.660Z,153.57
2019-01-24T00:09:22.154Z,140.63
2019-01-24T00:11:54.089Z,136.47
2019-01-24T00:14:27.383Z,143.87
2019-01-24T00:17:00.194Z,151.57
2019-01-24T00:19:32.672Z,157.40
2019-01-24T00:22:04.618Z,140.97
2019-01-24T00:24:36.016Z,141.97
2019-01-24T00:29:40.227Z,130.47
2019-01-24T00:32:11.096Z,151.67
2019-01-24T00:34:44.112Z,142.43
2019-01-24T00:37:15.338Z,141.63
2019-01-24T00:39:47.329Z,135.23
2019-01-24T00:42:18.185Z,130.77
2019-01-24T00:44:48.909Z,145.03
2019-01-24T00:47:18.710Z,139.03
2019-01-24T00:49:54.644Z,126.83
2019-01-24T00:52:26.212Z,128.00
2019-01-24T00:54:58.978Z,141.03
2019-01-24T00:57:30.151Z,124.07
2019-01-24T01:00:01.417Z,133.93
2019-01-24T01:02:33.582Z,130.33
2019-01-24T01:05:06.480Z,123.00
2019-01-24T01:07:39.312Z,141.70
2019-01-24T01:10:11.447Z,127.10
2019-01-24T01:12:43.574Z,129.10
2019-01-24T01:15:21.037Z,121.50
2019-01-24T01:17:52.178Z,116.63
2019-01-24T01:20:23.394Z,121.70
2019-01-24T01:22:54.478Z,123.20
2019-01-24T01:25:26.266Z,112.27
2019-01-24T01:27:57.744Z,126.03
2019-01-24T01:30:28.637Z,124.27
2019-01-24T01:33:01.299Z,120.30
2019-01-24T01:35:34.099Z,135.77
2019-01-24T01:38:05.242Z,139.90
2019-01-24T01:40:36.375Z,141.03
2019-01-24T01:43:07.447Z,130.07
2019-01-24T01:45:39.590Z,125.53
2019-01-24T01:48:11.885Z,128.30
2019-01-24T01:50:43.396Z,145.93
2019-01-24T01:53:16.918Z,125.43
2019-01-24T01:55:48.882Z,119.60
2019-01-24T01:58:19.614Z,129.63
2019-01-24T02:00:51.645Z,119.17
2019-01-24T02:03:23.541Z,138.07
2019-01-24T02:05:57.446Z,129.97
2019-01-24T02:08:30.269Z,139.13
2019-01-24T02:11:02.450Z,117.97
2019-01-24T02:13:32.929Z,126.43
2019-01-24T02:16:07.623Z,116.00
2019-01-24T02:18:39.788Z,117.33
2019-01-24T02:21:12.515Z,116.63
2019-01-24T02:23:43.185Z,125.73
2019-01-24T02:26:17.148Z,120.00
2019-01-24T02:28:48.702Z,114.23
2019-01-24T02:31:22.456Z,122.40
2019-01-24T02:33:52.806Z,129.03
2019-01-24T02:36:23.507Z,128.87
2019-01-24T02:38:54.832Z,124.27
2019-01-24T02:41:28.652Z,124.53
2019-01-24T02:44:02.634Z,124.30
2019-01-24T02:46:37.150Z,121.00
2019-01-24T02:49:09.515Z,117.53
2019-01-24T02:51:41.089Z,130.70
2019-01-24T02:54:12.735Z,124.43
2019-01-24T02:56:43.395Z,122.60
2019-01-24T02:59:18.163Z,115.80
2019-01-24T03:01:49.300Z,109.67
2019-01-24T03:04:20.784Z,124.70
2019-01-24T03:06:53.814Z,133.27
2019-01-24T03:09:25.496Z,132.20
2019-01-24T03:11:56.613Z,116.03
2019-01-24T03:14:28.441Z,125.50
2019-01-24T03:17:01.160Z,109.20
2019-01-24T03:19:33.045Z,121.43
2019-01-24T03:22:06.387Z,129.70
2019-01-24T03:24:38.847Z,128.13
2019-01-24T03:27:10.989Z,141.13
2019-01-24T03:29:41.787Z,109.03
2019-01-24T03:32:13.226Z,118.77
2019-01-24T03:34:43.958Z,140.87
2019-01-24T03:37:17.506Z,119.23
2019-01-24T03:39:50.252Z,128.93
2019-01-24T03:42:21.154Z,135.53
2019-01-24T03:44:51.954Z,126.37
2019-01-24T03:47:23.282Z,126.37
2019-01-24T03:49:56.052Z,121.73
2019-01-24T03:52:27.088Z,132.33
2019-01-24T03:54:57.930Z,112.63
2019-01-24T03:57:29.604Z,124.13
2019-01-24T04:00:00.572Z,108.43
2019-01-24T04:02:32.076Z,117.07
2019-01-24T04:05:11.832Z,112.13
2019-01-24T04:07:39.758Z,101.60
2019-01-24T04:10:13.790Z,112.83
2019-01-24T04:12:45.610Z,110.77
2019-01-24T04:15:18.779Z,115.43
2019-01-24T04:17:50.819Z,115.07
2019-01-24T04:20:21.532Z,108.27
2019-01-24T04:22:54.989Z,108.93
2019-01-24T04:25:29.450Z,108.90
2019-01-24T04:28:00.020Z,105.07
2019-01-24T04:30:33.817Z,110.63
2019-01-24T04:33:08.198Z,105.20
2019-01-24T04:35:39.785Z,101.07
2019-01-24T04:38:11.125Z,114.70
2019-01-24T04:40:43.785Z,111.43
2019-01-24T04:43:14.818Z,92.87
2019-01-24T04:45:46.514Z,102.30
2019-01-24T04:48:19.455Z,94.97
2019-01-24T04:50:51.530Z,100.07
2019-01-24T04:53:24.057Z,86.50
2019-01-24T04:55:56.552Z,116.47
2019-01-24T04:58:28.183Z,108.07
2019-01-24T05:01:01.056Z,97.20
2019-01-24T05:03:33.048Z,91.90
2019-01-24T05:06:04.340Z,96.13
2019-01-24T05:08:38.610Z,77.90
2019-01-24T05:11:11.874Z,94.70
2019-01-24T05:13:42.930Z,87.70
2019-01-24T05:16:14.084Z,83.77
2019-01-24T05:18:47.112Z,90.77
2019-01-24T05:21:18.095Z,99.37
2019-01-24T05:23:51.916Z,79.67
2019-01-24T05:26:22.976Z,94.27
2019-01-24T05:28:54.025Z,75.10
2019-01-24T05:31:24.564Z,80.97
2019-01-24T05:33:56.984Z,83.53
2019-01-24T05:36:29.802Z,77.57
2019-01-24T05:39:02.166Z,82.10
2019-01-24T05:41:33.173Z,85.80
2019-01-24T05:44:05.722Z,90.70
2019-01-24T05:46:37.382Z,78.80
2019-01-24T05:49:11.131Z,76.63
2019-01-24T05:51:44.110Z,71.90
2019-01-24T05:54:18.696Z,74.13
2019-01-24T05:56:49.877Z,73.47
2019-01-24T05:59:24.233Z,78.63
2019-01-24T06:01:56.165Z,77.33
2019-01-24T06:04:29.299Z,65.97
2019-01-24T06:07:01.547Z,73.93
2019-01-24T06:09:33.525Z,74.53
2019-01-24T06:12:05.817Z,71.07
2019-01-24T06:14:36.867Z,70.90
2019-01-24T06:17:11.038Z,76.77
2019-01-24T06:19:42.289Z,74.17
2019-01-24T06:22:31.779Z,69.57
2019-01-24T06:25:41.902Z,84.23
2019-01-24T06:32:03.308Z,67.20
2019-01-24T06:34:38.057Z,70.40
2019-01-24T06:37:11.443Z,76.63
2019-01-24T06:39:47.838Z,64.77
2019-01-24T06:42:45.537Z,76.13
2019-01-24T06:45:39.211Z,74.47
2019-01-24T06:48:18.428Z,74.00
2019-01-24T06:51:18.177Z,87.07
2019-01-24T06:53:59.947Z,81.60
2019-01-24T06:56:40.611Z,68.90
2019-01-24T06:59:48.637Z,51.37
2019-01-24T07:02:55.971Z,61.90
2019-01-24T07:05:37.000Z,73.55
2019-01-24T07:08:14.396Z,71.17
2019-01-24T07:10:52.453Z,71.37
2019-01-24T07:13:27.522Z,69.07
2019-01-24T07:16:05.725Z,72.30
2019-01-24T07:18:56.801Z,74.20
2019-01-24T07:21:47.113Z,66.27
2019-01-24T07:24:28.884Z,67.67
2019-01-24T07:27:05.322Z,66.07
2019-01-24T07:29:55.626Z,63.83
2019-01-24T07:32:36.503Z,87.10
2019-01-24T07:35:40.129Z,71.83
2019-01-24T07:38:38.537Z,63.87
2019-01-24T07:41:15.258Z,65.33
2019-01-24T07:43:51.064Z,68.27
2019-01-24T07:46:23.347Z,79.30
2019-01-24T07:52:34.359Z,77.47
2019-01-24T07:58:59.939Z,66.00
2019-01-24T08:01:30.842Z,83.45
2019-01-24T08:04:04.487Z,80.37
2019-01-24T08:06:38.093Z,74.63
2019-01-24T08:09:10.983Z,71.50
2019-01-24T08:11:44.221Z,70.07
2019-01-24T08:14:17.252Z,68.27
2019-01-24T08:16:47.376Z,69.60
2019-01-24T08:19:19.068Z,68.90
2019-01-24T08:21:52.242Z,65.13
2019-01-24T08:24:24.469Z,70.57
2019-01-24T08:26:58.395Z,75.43
2019-01-24T08:29:29.642Z,67.37
2019-01-24T08:32:01.043Z,70.70
2019-01-24T08:34:35.076Z,72.17
2019-01-24T08:37:09.173Z,68.00
2019-01-24T08:39:43.861Z,64.50
2019-01-24T08:42:18.121Z,65.57
2019-01-24T08:44:50.081Z,62.33
2019-01-24T08:47:21.777Z,59.73
2019-01-24T08:49:54.804Z,54.20
2019-01-24T08:52:28.509Z,60.30
2019-01-24T08:55:01.131Z,74.13
2019-01-24T08:57:32.151Z,63.10
2019-01-24T09:00:03.536Z,65.00
2019-01-24T09:02:35.145Z,57.87
2019-01-24T09:05:10.077Z,59.20
2019-01-24T09:07:43.653Z,63.73
2019-01-24T09:10:33.790Z,51.57
2019-01-24T09:13:15.002Z,59.40
2019-01-24T09:15:47.469Z,58.53
2019-01-24T09:18:20.525Z,64.60
2019-01-24T09:20:53.257Z,57.70
2019-01-24T09:23:25.083Z,66.40
2019-01-24T09:26:11.919Z,64.73
2019-01-24T09:28:45.398Z,64.33
2019-01-24T09:31:16.495Z,69.37
2019-01-24T09:33:49.630Z,60.47
2019-01-24T09:36:29.195Z,62.17
2019-01-24T09:38:58.594Z,63.97
2019-01-24T09:41:32.859Z,64.00
2019-01-24T09:44:05.146Z,64.83
2019-01-24T09:46:39.210Z,61.40
2019-01-24T09:49:12.514Z,65.30
2019-01-24T09:51:45.193Z,99.87
2019-01-24T09:54:18.029Z,74.10
2019-01-24T09:56:53.241Z,67.10
2019-01-24T09:59:25.978Z,77.73
2019-01-24T10:01:58.590Z,61.33
2019-01-24T10:04:32.670Z,59.07
2019-01-24T10:07:06.625Z,61.50
2019-01-24T10:09:38.726Z,54.77
2019-01-24T10:12:11.449Z,61.03
2019-01-24T10:14:43.191Z,65.17
2019-01-24T10:17:16.164Z,60.37
2019-01-24T10:19:50.881Z,59.53
2019-01-24T10:22:24.350Z,59.37
2019-01-24T10:24:58.802Z,60.47
2019-01-24T10:27:36.717Z,59.73
2019-01-24T10:30:14.500Z,70.73
2019-01-24T10:32:48.111Z,55.90
2019-01-24T10:35:20.450Z,58.10
2019-01-24T10:37:53.149Z,62.47
2019-01-24T10:40:30.964Z,68.47
2019-01-24T10:43:02.960Z,64.77
2019-01-24T10:45:36.295Z,48.07
2019-01-24T10:48:08.919Z,63.17
2019-01-24T10:50:41.995Z,59.70
2019-01-24T10:53:17.077Z,71.43
2019-01-24T10:55:48.324Z,59.67
2019-01-24T10:58:20.635Z,62.83
2019-01-24T11:00:56.032Z,69.30
2019-01-24T11:03:29.627Z,58.80
2019-01-24T11:06:02.339Z,71.43
2019-01-24T11:08:37.298Z,54.10
2019-01-24T11:11:08.572Z,63.50
2019-01-24T11:13:42.331Z,64.80
2019-01-24T11:16:14.763Z,65.90
2019-01-24T11:18:49.352Z,72.37
2019-01-24T11:21:23.590Z,65.17
2019-01-24T11:23:59.745Z,60.97
2019-01-24T11:26:31.964Z,67.47
2019-01-24T11:29:02.681Z,62.77
2019-01-24T11:31:34.231Z,59.57
2019-01-24T11:34:07.439Z,65.97
2019-01-24T11:36:38.591Z,61.93
2019-01-24T11:39:11.020Z,59.47
2019-01-24T11:41:45.582Z,63.63
2019-01-24T11:44:18.625Z,69.07
2019-01-24T11:46:51.771Z,62.47
2019-01-24T11:49:24.943Z,60.17
2019-01-24T11:51:55.760Z,65.30
2019-01-24T11:54:28.192Z,61.00
2019-01-24T11:57:02.472Z,62.73
2019-01-24T11:59:37.273Z,63.30
2019-01-24T12:02:12.585Z,61.60
2019-01-24T12:04:44.698Z,69.77
2019-01-24T12:07:17.479Z,70.03
2019-01-24T12:09:50.379Z,67.40
2019-01-24T12:12:24.100Z,76.90
2019-01-24T12:14:56.002Z,70.03
2019-01-24T12:17:28.848Z,78.93
2019-01-24T12:20:01.496Z,77.50
2019-01-24T12:22:35.215Z,74.87
2019-01-24T12:25:09.572Z,70.43
2019-01-24T12:27:45.321Z,75.83
2019-01-24T12:30:23.063Z,73.67
2019-01-24T12:32:57.790Z,76.20
2019-01-24T12:35:29.915Z,70.27
2019-01-24T12:38:04.435Z,68.07
2019-01-24T12:40:37.443Z,71.97
2019-01-24T12:43:09.524Z,63.33
2019-01-24T12:45:44.917Z,63.80
2019-01-24T12:48:20.234Z,66.37
2019-01-24T12:50:53.872Z,68.83
2019-01-24T12:53:30.616Z,72.83
2019-01-24T12:56:06.789Z,61.53
2019-01-24T12:58:39.303Z,80.10
2019-01-24T13:01:11.473Z,71.17
2019-01-24T13:03:46.189Z,74.20
2019-01-24T13:06:20.883Z,67.07
2019-01-24T13:08:54.666Z,64.30
2019-01-24T13:11:28.898Z,68.73
2019-01-24T13:14:03.190Z,65.50
2019-01-24T13:16:38.864Z,69.83
2019-01-24T13:19:12.280Z,71.43
2019-01-24T13:21:44.096Z,75.93
2019-01-24T13:24:16.089Z,63.97
2019-01-24T13:26:47.738Z,66.07
2019-01-24T13:29:20.669Z,67.97
2019-01-24T13:31:53.963Z,78.90
2019-01-24T13:34:25.752Z,77.47
2019-01-24T13:36:58.334Z,70.53
2019-01-24T13:39:29.550Z,75.80
2019-01-24T13:42:04.846Z,70.43
2019-01-24T13:44:37.938Z,65.90
2019-01-24T13:47:09.124Z,71.90
2019-01-24T13:49:41.201Z,68.10
2019-01-24T13:52:12.645Z,63.77
2019-01-24T13:54:44.016Z,57.87
2019-01-24T13:57:21.946Z,69.83
2019-01-24T13:59:55.812Z,71.60
2019-01-24T14:02:28.852Z,75.90
2019-01-24T14:05:00.563Z,75.27
2019-01-24T14:07:33.910Z,69.07
2019-01-24T14:10:08.203Z,77.93
2019-01-24T14:12:42.631Z,61.27
2019-01-24T14:15:19.360Z,64.83
2019-01-24T14:17:56.504Z,64.70
2019-01-24T14:20:28.698Z,83.03
2019-01-24T14:23:03.496Z,78.93
2019-01-24T14:25:39.462Z,65.83
2019-01-24T14:28:14.038Z,68.30
2019-01-24T14:30:46.237Z,76.87
2019-01-24T14:33:19.709Z,66.97
2019-01-24T14:35:51.678Z,72.23
2019-01-24T14:38:24.788Z,63.40
2019-01-24T14:40:59.969Z,56.43
2019-01-24T14:43:32.970Z,67.33
2019-01-24T14:46:07.492Z,67.80
2019-01-24T14:48:41.885Z,69.50
2019-01-24T14:51:16.071Z,59.33
2019-01-24T14:53:47.219Z,69.33
2019-01-24T14:56:20.826Z,66.87
2019-01-24T14:58:52.611Z,64.03
2019-01-24T15:01:25.075Z,66.80
2019-01-24T15:03:59.248Z,65.90
2019-01-24T15:06:31.557Z,70.07
2019-01-24T15:09:06.839Z,68.43
2019-01-24T15:11:39.078Z,73.17
2019-01-24T15:14:13.717Z,63.17
2019-01-24T15:16:45.083Z,66.23
2019-01-24T15:19:17.593Z,73.27
2019-01-24T15:21:48.798Z,67.67
2019-01-24T15:24:24.153Z,69.03
2019-01-24T15:26:57.272Z,76.50
2019-01-24T15:29:29.395Z,82.20
2019-01-24T15:32:03.209Z,65.27
2019-01-24T15:34:37.074Z,70.47
2019-01-24T15:37:07.946Z,60.30
2019-01-24T15:39:41.008Z,61.63
2019-01-24T15:42:15.548Z,59.53
2019-01-24T15:44:47.657Z,64.53
2019-01-24T15:47:20.431Z,81.57
2019-01-24T15:49:55.454Z,75.63
2019-01-24T15:52:26.879Z,67.33
2019-01-24T15:55:00.428Z,63.80
2019-01-24T15:57:33.541Z,70.50
2019-01-24T16:00:07.288Z,67.33
2019-01-24T16:02:39.524Z,67.90
2019-01-24T16:05:13.260Z,65.47
2019-01-24T16:07:45.386Z,77.20
2019-01-24T16:10:20.272Z,70.30
2019-01-24T16:12:55.118Z,58.77
2019-01-24T16:15:40.855Z,68.73
2019-01-24T16:18:13.779Z,69.53
2019-01-24T16:20:45.693Z,58.70
2019-01-24T16:23:23.205Z,67.13
2019-01-24T16:25:55.465Z,71.70
2019-01-24T16:28:30.287Z,55.53
2019-01-24T16:31:02.599Z,65.30
2019-01-24T16:33:35.493Z,72.83
2019-01-24T16:36:08.647Z,65.87
2019-01-24T16:38:40.060Z,65.93
2019-01-24T16:41:12.799Z,69.87
2019-01-24T16:43:55.677Z,67.83
2019-01-24T16:46:28.369Z,60.97
2019-01-24T16:49:03.502Z,64.50
2019-01-24T16:51:35.210Z,67.50
2019-01-24T16:54:07.264Z,65.07
2019-01-24T16:56:41.234Z,68.57
2019-01-24T16:59:13.528Z,63.77
2019-01-24T17:01:45.809Z,64.53
2019-01-24T17:04:20.072Z,59.63
2019-01-24T17:06:53.011Z,66.30
2019-01-24T17:09:24.492Z,61.43
2019-01-24T17:11:57.300Z,69.73
2019-01-24T17:14:30.645Z,61.77
2019-01-24T17:17:03.069Z,83.33
2019-01-24T17:19:35.364Z,75.00
2019-01-24T17:22:09.052Z,59.53
2019-01-24T17:24:41.569Z,61.80
2019-01-24T17:27:17.723Z,59.03
2019-01-24T17:29:49.617Z,65.90
2019-01-24T17:32:26.614Z,58.87
2019-01-24T17:35:00.175Z,55.83
2019-01-24T17:37:35.261Z,61.70
2019-01-24T17:40:14.061Z,65.20
2019-01-24T17:42:46.436Z,58.17
2019-01-24T17:45:19.195Z,64.30
2019-01-24T17:47:52.597Z,60.73
2019-01-24T17:50:25.887Z,70.27
2019-01-24T17:52:59.316Z,60.13
2019-01-24T17:55:34.755Z,69.87
2019-01-24T17:58:11.744Z,60.43
2019-01-24T18:00:50.791Z,69.90
2019-01-24T18:03:24.833Z,63.03
2019-01-24T18:05:56.238Z,58.40
2019-01-24T18:08:31.371Z,63.63
2019-01-24T18:18:27.296Z,61.77
2019-01-24T18:24:25.318Z,61.63
2019-01-24T18:27:07.364Z,56.53
2019-01-24T18:29:46.235Z,75.97
2019-01-24T18:32:17.720Z,61.17
2019-01-24T18:34:50.508Z,64.60
2019-01-24T18:38:04.328Z,75.70
2019-01-24T18:40:37.597Z,73.93
2019-01-24T18:43:11.681Z,68.20
2019-01-24T18:45:57.180Z,72.53
2019-01-24T18:48:28.531Z,62.00
2019-01-24T18:51:00.766Z,77.17
2019-01-24T18:53:34.875Z,64.83
2019-01-24T18:56:12.057Z,63.67
2019-01-24T18:58:43.372Z,70.63
2019-01-24T19:01:14.213Z,62.77
2019-01-24T19:03:45.571Z,59.30
2019-01-24T19:06:24.626Z,62.57
2019-01-24T19:09:05.486Z,98.27
2019-01-24T19:11:41.107Z,72.10
2019-01-24T19:14:12.638Z,65.13
2019-01-24T19:16:58.931Z,60.30
2019-01-24T19:19:31.318Z,73.67
2019-01-24T19:22:05.135Z,71.83
2019-01-24T19:24:37.010Z,68.30
2019-01-24T19:27:09.925Z,58.57
2019-01-24T19:29:41.131Z,63.17
2019-01-24T19:32:14.514Z,59.00
2019-01-24T19:34:48.856Z,57.90
2019-01-24T19:37:24.735Z,62.27
2019-01-24T19:40:00.607Z,62.23
2019-01-24T19:43:03.710Z,65.93
2019-01-24T19:45:37.095Z,61.20
2019-01-24T19:48:08.344Z,71.63
2019-01-24T19:50:43.944Z,62.23
2019-01-24T19:53:16.426Z,76.33
2019-01-24T19:55:51.776Z,65.20
2019-01-24T19:58:24.276Z,66.93
2019-01-24T20:00:56.399Z,70.00
2019-01-24T20:03:50.572Z,70.07
2019-01-24T20:06:27.519Z,76.93
2019-01-24T20:09:10.238Z,70.80
2019-01-24T20:11:42.361Z,72.13
2019-01-24T20:14:16.053Z,67.67
2019-01-24T20:16:48.992Z,63.90
2019-01-24T20:19:22.952Z,63.03
2019-01-24T20:22:16.117Z,65.93
2019-01-24T20:24:39.663Z,66.87
2019-01-24T20:27:11.715Z,64.03
2019-01-24T20:29:43.204Z,76.73
2019-01-24T20:32:15.641Z,74.30
2019-01-24T20:34:46.697Z,72.73
2019-01-24T20:37:18.438Z,77.27
2019-01-24T20:39:49.672Z,63.43
2019-01-24T20:42:21.388Z,63.63
2019-01-24T20:44:52.199Z,69.93
2019-01-24T20:47:25.593Z,62.53
2019-01-24T20:49:56.723Z,60.90
2019-01-24T20:52:28.372Z,62.10
2019-01-24T20:54:58.814Z,62.10
2019-01-24T20:57:30.759Z,63.60
2019-01-24T21:00:02.378Z,65.70
2019-01-24T21:02:35.175Z,63.77
2019-01-24T21:05:10.623Z,70.77
2019-01-24T21:07:42.300Z,64.17
2019-01-24T21:10:16.662Z,66.67
2019-01-24T21:12:48.603Z,67.07
2019-01-24T21:15:20.465Z,66.13
2019-01-24T21:17:51.764Z,70.23
2019-01-24T21:20:24.622Z,63.33
2019-01-24T21:22:56.336Z,59.30
2019-01-24T21:25:27.531Z,70.07
2019-01-24T21:27:58.462Z,60.30
2019-01-24T21:30:36.051Z,65.53
2019-01-24T21:33:07.615Z,71.27
2019-01-24T21:35:39.453Z,68.00
2019-01-24T21:38:11.096Z,61.60
2019-01-24T21:40:41.569Z,64.17
2019-01-24T21:43:16.333Z,57.57
2019-01-24T21:45:48.646Z,64.97
2019-01-24T21:48:21.244Z,58.43
2019-01-24T21:50:55.438Z,65.90
2019-01-24T21:53:26.405Z,64.40
2019-01-24T21:55:56.815Z,68.67
2019-01-24T21:58:27.619Z,68.60
2019-01-24T22:00:58.227Z,59.27
2019-01-24T22:06:18.217Z,66.80
2019-01-24T22:08:52.344Z,66.10
2019-01-24T22:11:24.731Z,66.30
2019-01-24T22:13:57.763Z,66.03
2019-01-24T22:16:30.362Z,64.10
2019-01-24T22:19:02.973Z,57.67
2019-01-24T22:21:36.533Z,64.07
2019-01-24T22:24:09.574Z,55.73
2019-01-24T22:26:43.125Z,58.47
2019-01-24T22:29:15.916Z,68.30
2019-01-24T22:31:48.206Z,58.00
2019-01-24T22:34:22.273Z,59.33
2019-01-24T22:36:56.248Z,57.07
2019-01-24T22:39:28.501Z,60.67
2019-01-24T22:42:00.181Z,60.80
2019-01-24T22:44:33.321Z,55.93
2019-01-24T22:47:05.687Z,56.60
2019-01-24T22:49:40.199Z,68.17
2019-01-24T22:52:11.117Z,62.23
2019-01-24T22:54:44.670Z,52.03
2019-01-24T22:57:16.592Z,64.57
2019-01-24T22:59:48.264Z,57.20
2019-01-24T23:02:21.206Z,64.53
2019-01-24T23:04:52.272Z,62.50
2019-01-24T23:07:25.492Z,61.60
2019-01-24T23:09:57.536Z,57.33
2019-01-24T23:12:31.090Z,54.83
2019-01-24T23:15:03.976Z,51.13
2019-01-24T23:17:34.379Z,64.23
2019-01-24T23:20:09.102Z,56.43
2019-01-24T23:22:40.558Z,61.43
2019-01-24T23:25:15.807Z,59.50
2019-01-24T23:27:48.568Z,57.77
2019-01-24T23:30:23.958Z,58.13
2019-01-24T23:32:56.556Z,55.23
2019-01-24T23:35:27.817Z,50.97
2019-01-24T23:38:00.369Z,53.00
2019-01-24T23:40:32.316Z,53.67
2019-01-24T23:43:06.119Z,55.50
2019-01-24T23:45:39.338Z,56.17
2019-01-24T23:48:11.793Z,53.37
2019-01-24T23:50:43.426Z,52.20
2019-01-24T23:53:16.341Z,50.73
2019-01-24T23:55:48.638Z,54.47
2019-01-24T23:58:23.005Z,57.37
